Time;durP1;ratioP1;P1;durP2;ratioP2;P2;SDS_P1;SDS_P2;PMS_P1;PMS_P2;Temp;Humidity;BMP_temperature;BMP_pressure;BME280_temperature;BME280_humidity;BME280_pressure;Samples;Min_cycle;Max_cycle;Signal;HPM_P1;HPM_P2
2023/05/13 00:01:14;;;;;;;14.00;4.40;;;;;;;10.62;60.19;100212.09;106791;1263;61151;-39
2023/05/13 00:03:43;;;;;;;9.00;4.20;;;;;;;10.62;60.72;100210.13;106755;1263;72723;-39
2023/05/13 00:06:10;;;;;;;9.30;4.90;;;;;;;10.68;61.14;100206.30;106725;1264;68699;-39
2023/05/13 00:08:37;;;;;;;9.40;4.40;;;;;;;10.72;61.32;100204.96;106689;1264;74749;-39
2023/05/13 00:11:05;;;;;;;8.30;4.70;;;;;;;10.73;61.72;100208.48;106721;1269;62402;-39
2023/05/13 00:13:32;;;;;;;6.60;4.50;;;;;;;10.74;62.05;100205.43;106652;1269;62408;-39
2023/05/13 00:15:59;;;;;;;10.70;4.60;;;;;;;10.75;62.03;100206.23;106612;1263;74773;-39
2023/05/13 00:18:26;;;;;;;9.10;5.10;;;;;;;10.75;61.86;100207.84;106692;1263;70211;-39
2023/05/13 00:20:55;;;;;;;7.00;4.70;;;;;;;10.74;62.13;100209.90;106736;1269;74982;-39
2023/05/13 00:23:22;;;;;;;11.00;5.30;;;;;;;10.73;62.76;100211.03;106668;1264;59777;-39
2023/05/13 00:25:49;;;;;;;8.60;4.90;;;;;;;10.70;62.92;100205.35;106659;1264;62584;-39
2023/05/13 00:28:16;;;;;;;10.60;4.80;;;;;;;10.65;62.89;100209.69;106716;1263;75346;-39
2023/05/13 00:30:44;;;;;;;6.20;5.00;;;;;;;10.62;63.01;100211.23;106683;1263;68341;-39
2023/05/13 00:33:11;;;;;;;11.30;4.60;;;;;;;10.59;63.01;100213.45;106609;1263;75156;-39
2023/05/13 00:35:39;;;;;;;6.30;4.30;;;;;;;10.59;62.88;100212.83;106884;1264;63778;-39
2023/05/13 00:38:07;;;;;;;6.90;4.20;;;;;;;10.65;62.85;100214.82;106714;1263;60363;-39
2023/05/13 00:40:38;;;;;;;9.10;4.90;;;;;;;10.67;63.00;100215.02;106713;1264;75402;-39
2023/05/13 00:43:05;;;;;;;8.50;5.40;;;;;;;10.67;63.32;100213.02;106814;1263;69799;-39
2023/05/13 00:45:32;;;;;;;9.40;4.90;;;;;;;10.67;63.12;100216.37;106713;1264;74962;-38
2023/05/13 00:48:00;;;;;;;8.00;4.60;;;;;;;10.67;62.75;100218.38;106782;1264;62414;-39
2023/05/13 00:50:27;;;;;;;7.60;4.50;;;;;;;10.66;62.26;100222.38;106677;1264;62517;-38
2023/05/13 00:52:54;;;;;;;7.20;4.40;;;;;;;10.62;62.14;100219.14;106726;1264;72573;-39
2023/05/13 00:55:22;;;;;;;6.60;4.80;;;;;;;10.60;62.00;100217.90;106791;1264;70296;-38
2023/05/13 00:57:49;;;;;;;9.00;4.60;;;;;;;10.58;61.68;100220.06;106610;1266;75000;-39
2023/05/13 01:00:16;;;;;;;7.30;4.60;;;;;;;10.55;61.44;100221.31;106694;1266;60632;-39
2023/05/13 01:03:00;;;;;;;8.50;5.20;;;;;;;10.52;61.21;100218.25;106614;1272;60744;-38
2023/05/13 01:05:35;;;;;;;9.00;5.60;;;;;;;10.47;60.69;100220.59;106744;1266;75404;-38
2023/05/13 01:08:08;;;;;;;8.20;4.90;;;;;;;10.41;60.40;100221.31;106756;1265;67319;-38
2023/05/13 01:10:48;;;;;;;12.60;5.50;;;;;;;10.37;60.00;100216.75;106761;1267;74090;-38
2023/05/13 01:13:27;;;;;;;6.60;5.00;;;;;;;10.33;60.04;100217.23;106750;1266;62667;-40
2023/05/13 01:16:11;;;;;;;7.10;5.60;;;;;;;10.28;60.20;100215.44;106775;1264;60574;-39
2023/05/13 01:18:42;;;;;;;8.40;5.50;;;;;;;10.24;60.07;100214.23;106805;1265;74873;-39
2023/05/13 01:21:10;;;;;;;9.30;5.70;;;;;;;10.21;60.29;100216.70;106610;1264;70244;-38
2023/05/13 01:23:37;;;;;;;8.60;5.40;;;;;;;10.19;60.50;100217.08;106602;1266;75103;-38
2023/05/13 01:26:05;;;;;;;12.70;5.50;;;;;;;10.17;60.94;100219.55;106603;1263;61234;-39
2023/05/13 01:28:32;;;;;;;10.80;5.10;;;;;;;10.14;61.33;100216.71;106672;1264;59622;-38
2023/05/13 01:31:00;;;;;;;9.30;5.60;;;;;;;10.16;61.35;100214.92;106649;1264;73739;-38
2023/05/13 01:33:30;;;;;;;11.90;5.40;;;;;;;10.19;61.30;100213.22;106653;1264;70261;-38
2023/05/13 01:35:57;;;;;;;9.90;5.00;;;;;;;10.21;61.30;100211.02;106628;1267;73437;-38
2023/05/13 01:38:24;;;;;;;7.60;5.30;;;;;;;10.20;61.08;100211.23;106680;1263;62447;-39
2023/05/13 01:40:53;;;;;;;9.60;6.30;;;;;;;10.20;61.19;100212.06;106709;1263;59494;-38
2023/05/13 01:43:20;;;;;;;9.30;6.20;;;;;;;10.18;61.53;100211.38;106772;1263;74785;-38
2023/05/13 01:45:48;;;;;;;9.40;6.50;;;;;;;10.15;61.80;100211.71;106807;1264;67464;-38
2023/05/13 01:48:17;;;;;;;9.40;5.70;;;;;;;10.12;62.05;100211.55;106740;1264;72168;-38
2023/05/13 01:50:46;;;;;;;8.90;6.30;;;;;;;10.10;62.26;100212.63;106738;1266;61534;-38
2023/05/13 01:53:13;;;;;;;9.80;7.00;;;;;;;10.06;62.61;100209.89;106738;1265;61395;-38
2023/05/13 01:55:41;;;;;;;9.70;6.80;;;;;;;10.04;62.92;100211.98;106859;1262;74303;-38
2023/05/13 01:58:08;;;;;;;11.10;6.60;;;;;;;10.00;63.45;100211.23;106817;1262;69722;-38
2023/05/13 02:00:35;;;;;;;9.70;6.50;;;;;;;10.01;63.71;100210.86;106915;1265;74891;-38
2023/05/13 02:03:03;;;;;;;11.00;6.90;;;;;;;10.06;63.79;100213.73;106834;1263;60979;-38
2023/05/13 02:05:31;;;;;;;9.20;6.30;;;;;;;10.08;63.89;100213.41;106987;1266;61369;-38
2023/05/13 02:08:00;;;;;;;;;;;;;;;10.06;63.71;100215.75;106936;1263;75356;-39
2023/05/13 02:10:27;;;;;;;10.80;6.60;;;;;;;9.99;63.54;100219.39;107019;1262;68240;-38
2023/05/13 02:12:54;;;;;;;8.50;6.10;;;;;;;9.93;63.28;100215.84;106874;1263;73536;-38
2023/05/13 02:15:21;;;;;;;9.80;6.10;;;;;;;9.93;63.10;100216.08;106839;1263;62676;-38
2023/05/13 02:17:49;;;;;;;8.50;5.50;;;;;;;9.91;63.07;100216.41;106920;1262;62453;-38
2023/05/13 02:20:16;;;;;;;10.80;5.80;;;;;;;9.90;62.96;100220.52;106831;1261;71870;-38
2023/05/13 02:22:43;;;;;;;10.20;5.90;;;;;;;9.87;63.02;100219.36;106905;1263;68072;-38
2023/05/13 02:25:10;;;;;;;10.10;5.50;;;;;;;9.84;63.19;100219.56;106826;1263;74728;-38
2023/05/13 02:27:38;;;;;;;9.10;5.50;;;;;;;9.82;63.26;100227.61;107002;1260;61461;-38
2023/05/13 02:30:06;;;;;;;7.80;5.40;;;;;;;9.79;63.55;100228.25;106777;1261;61754;-38
2023/05/13 02:32:33;;;;;;;8.80;5.70;;;;;;;9.76;63.62;100229.96;106917;1261;75293;-39
2023/05/13 02:35:00;;;;;;;8.80;4.60;;;;;;;9.81;63.47;100228.17;106834;1266;68061;-38
2023/05/13 02:37:27;;;;;;;6.90;4.80;;;;;;;9.87;63.30;100226.39;106786;1263;73904;-39
2023/05/13 02:39:58;;;;;;;10.30;5.00;;;;;;;9.90;63.12;100226.73;106808;1261;59719;-39
2023/05/13 02:42:26;;;;;;;6.80;4.80;;;;;;;9.92;62.94;100228.19;106752;1262;62513;-39
2023/05/13 02:44:53;;;;;;;7.80;5.00;;;;;;;9.94;62.86;100234.48;106848;1263;72583;-38
2023/05/13 02:47:21;;;;;;;8.70;6.10;;;;;;;9.96;62.70;100232.83;106881;1262;67227;-39
2023/05/13 02:49:49;;;;;;;8.00;5.60;;;;;;;9.97;62.50;100236.34;106914;1263;72253;-39
2023/05/13 02:52:16;;;;;;;10.60;5.30;;;;;;;9.97;62.46;100237.45;106865;1263;60624;-39
2023/05/13 02:54:43;;;;;;;6.40;4.90;;;;;;;9.98;62.45;100240.01;106868;1263;60442;-39
2023/05/13 02:57:10;;;;;;;10.90;4.90;;;;;;;9.97;62.49;100239.52;106874;1263;74427;-39
2023/05/13 02:59:39;;;;;;;8.00;4.80;;;;;;;9.96;62.52;100242.11;106890;1263;67161;-39
2023/05/13 03:02:07;;;;;;;8.20;5.00;;;;;;;9.94;62.45;100247.77;106891;1263;73336;-39
2023/05/13 03:04:34;;;;;;;7.00;5.00;;;;;;;9.90;62.24;100247.27;106854;1263;60182;-39
2023/05/13 03:07:01;;;;;;;10.60;4.70;;;;;;;9.88;62.01;100247.56;106834;1263;60722;-39
2023/05/13 03:09:30;;;;;;;5.90;4.60;;;;;;;9.86;61.95;100246.80;106746;1263;74137;-39
2023/05/13 03:11:59;;;;;;;;;;;;;;;9.83;62.02;100252.81;106775;1262;67950;-39
2023/05/13 03:14:26;;;;;;;8.10;5.30;;;;;;;9.76;62.28;100254.00;106795;1263;74046;-39
2023/05/13 03:16:54;;;;;;;10.40;5.00;;;;;;;9.72;62.64;100253.07;106749;1262;62571;-39
2023/05/13 03:19:21;;;;;;;9.40;5.10;;;;;;;9.75;62.64;100252.98;106762;1264;61685;-39
2023/05/13 03:21:48;;;;;;;8.90;5.50;;;;;;;9.84;62.55;100252.90;106827;1262;75344;-39
2023/05/13 03:24:16;;;;;;;12.10;6.00;;;;;;;9.95;62.43;100250.44;107064;1262;66670;-40
2023/05/13 03:26:43;;;;;;;8.70;5.60;;;;;;;10.05;62.41;100245.81;106976;1260;75060;-40
2023/05/13 03:29:10;;;;;;;8.70;5.70;;;;;;;10.11;62.24;100246.48;106834;1262;62203;-40
2023/05/13 03:31:38;;;;;;;6.20;5.20;;;;;;;10.17;62.18;100251.29;106912;1262;61042;-40
2023/05/13 03:34:05;;;;;;;9.20;5.60;;;;;;;10.24;62.13;100253.93;106819;1262;75377;-40
2023/05/13 03:36:32;;;;;;;6.20;5.10;;;;;;;10.30;62.17;100254.23;106869;1261;68134;-40
2023/05/13 03:39:00;;;;;;;9.80;5.30;;;;;;;10.37;62.13;100253.48;106753;1265;73954;-40
2023/05/13 03:41:28;;;;;;;7.30;4.80;;;;;;;10.44;62.04;100255.73;106751;1263;61046;-40
2023/05/13 03:43:56;;;;;;;6.80;4.80;;;;;;;10.51;62.11;100258.87;106783;1263;60478;-40
2023/05/13 03:46:26;;;;;;;6.10;4.90;;;;;;;10.56;62.42;100263.78;106749;1263;73992;-40
2023/05/13 03:48:57;;;;;;;6.40;5.00;;;;;;;10.61;62.49;100266.05;106787;1263;68785;-40
2023/05/13 03:51:24;;;;;;;6.90;5.00;;;;;;;10.68;62.53;100270.70;106798;1263;72832;-40
2023/05/13 03:53:52;;;;;;;8.30;5.20;;;;;;;10.74;62.35;100272.45;106824;1262;61573;-39
2023/05/13 03:56:20;;;;;;;8.40;5.10;;;;;;;10.80;62.21;100276.77;106842;1263;61233;-40
2023/05/13 03:58:47;;;;;;;7.70;4.80;;;;;;;10.86;62.00;100272.14;106850;1263;74756;-39
2023/05/13 04:01:14;;;;;;;5.70;4.40;;;;;;;10.94;62.16;100274.23;106752;1263;68192;-40
2023/05/13 04:03:44;;;;;;;5.60;3.90;;;;;;;11.09;62.38;100274.79;106754;1263;74626;-40
2023/05/13 04:06:13;;;;;;;6.80;4.30;;;;;;;11.26;62.43;100275.95;106886;1262;62838;-40
2023/05/13 04:08:40;;;;;;;8.90;4.30;;;;;;;11.40;62.26;100279.01;106904;1262;60359;-39
2023/05/13 04:11:08;;;;;;;6.20;4.30;;;;;;;11.53;61.96;100278.14;106903;1262;75978;-39
2023/05/13 04:13:35;;;;;;;7.60;4.40;;;;;;;11.65;62.01;100278.81;106830;1262;70026;-39
2023/05/13 04:16:03;;;;;;;6.80;4.20;;;;;;;11.78;62.06;100284.73;106929;1263;71161;-41
2023/05/13 04:18:31;;;;;;;6.80;4.00;;;;;;;11.91;62.07;100289.36;106837;1263;61794;-41
2023/05/13 04:21:04;;;;;;;;;;;;;;;12.03;61.51;100288.85;106868;1261;60619;-41
2023/05/13 04:23:32;;;;;;;7.00;3.50;;;;;;;12.09;60.61;100289.73;106858;1263;76117;-39
2023/05/13 04:25:59;;;;;;;5.50;3.50;;;;;;;12.16;60.35;100291.94;106882;1263;67903;-40
2023/05/13 04:28:27;;;;;;;6.30;3.80;;;;;;;12.31;59.74;100290.40;106859;1263;71152;-40
2023/05/13 04:30:54;;;;;;;7.00;3.40;;;;;;;12.43;59.39;100294.08;106800;1265;59541;-40
2023/05/13 04:33:22;;;;;;;9.20;3.60;;;;;;;12.55;58.31;100291.11;106768;1261;60155;-39
2023/05/13 04:35:49;;;;;;;5.10;3.70;;;;;;;12.67;57.67;100293.97;106760;1266;73525;-39
2023/05/13 04:38:16;;;;;;;8.20;3.40;;;;;;;12.78;57.54;100292.86;106785;1261;69677;-39
2023/05/13 04:40:44;;;;;;;5.20;3.50;;;;;;;12.88;57.69;100294.02;106794;1263;71759;-39
2023/05/13 04:43:14;;;;;;;;;;;;;;;12.98;57.17;100294.75;106820;1263;61534;-39
2023/05/13 04:45:49;;;;;;;6.30;4.10;;;;;;;13.04;56.70;100295.98;106817;1263;60443;-40
2023/05/13 04:48:17;;;;;;;7.30;3.80;;;;;;;13.11;56.50;100296.17;106854;1262;73224;-40
2023/05/13 04:50:45;;;;;;;8.40;3.90;;;;;;;13.25;55.60;100293.55;106860;1263;70054;-40
2023/05/13 04:53:14;;;;;;;7.40;3.30;;;;;;;13.39;54.84;100293.48;106743;1263;74887;-39
2023/05/13 04:55:41;;;;;;;6.00;3.90;;;;;;;13.52;54.37;100293.29;106854;1263;62484;-39
2023/05/13 04:58:08;;;;;;;7.90;3.90;;;;;;;13.63;53.90;100293.84;106909;1262;61913;-40
2023/05/13 05:00:35;;;;;;;8.20;3.90;;;;;;;13.73;53.81;100290.38;106662;1264;75966;-39
2023/05/13 05:03:02;;;;;;;6.90;3.50;;;;;;;13.82;53.57;100292.06;106846;1263;67670;-39
2023/05/13 05:05:30;;;;;;;8.10;3.90;;;;;;;13.93;53.22;100290.71;106703;1263;74757;-40
2023/05/13 05:07:57;;;;;;;6.60;4.00;;;;;;;14.02;52.75;100288.27;106863;1263;60643;-39
2023/05/13 05:10:25;;;;;;;6.30;3.70;;;;;;;14.04;52.79;100278.88;106878;1262;60270;-40
2023/05/13 05:12:56;;;;;;;4.60;3.40;;;;;;;14.22;52.87;100290.84;106860;1263;75850;-39
2023/05/13 05:15:23;;;;;;;6.50;3.80;;;;;;;14.31;52.94;100291.64;106845;1262;68216;-41
2023/05/13 05:17:54;;;;;;;5.90;4.30;;;;;;;14.42;53.31;100293.58;106746;1263;72799;-41
2023/05/13 05:20:23;;;;;;;8.80;4.20;;;;;;;14.52;53.43;100292.97;106862;1263;62280;-41
2023/05/13 05:22:52;;;;;;;6.40;4.50;;;;;;;14.61;53.22;100298.20;106862;1263;60500;-41
2023/05/13 05:25:23;;;;;;;11.80;4.40;;;;;;;14.73;53.25;100300.58;106898;1263;74973;-41
2023/05/13 05:27:50;;;;;;;9.70;4.50;;;;;;;14.83;53.22;100295.70;106881;1263;69630;-40
2023/05/13 05:30:18;;;;;;;22.00;5.60;;;;;;;14.96;53.61;100298.55;106895;1263;73444;-41
2023/05/13 05:32:51;;;;;;;21.90;5.20;;;;;;;15.08;53.42;100297.89;106796;1263;61247;-41
2023/05/13 05:35:18;;;;;;;10.80;4.40;;;;;;;15.19;53.19;100295.25;106944;1267;62051;-40
2023/05/13 05:37:46;;;;;;;8.30;4.30;;;;;;;15.32;52.40;100295.58;106760;1263;73244;-40
2023/05/13 05:40:13;;;;;;;6.50;3.60;;;;;;;15.43;52.38;100296.55;106808;1268;68658;-40
2023/05/13 05:42:41;;;;;;;10.00;3.60;;;;;;;15.55;51.92;100292.36;106808;1263;73867;-40
2023/05/13 05:45:08;;;;;;;5.90;3.70;;;;;;;15.66;51.24;100294.46;106896;1263;60640;-41
2023/05/13 05:47:36;;;;;;;4.80;3.80;;;;;;;15.79;50.57;100296.27;107108;1261;60318;-41
2023/05/13 05:50:04;;;;;;;5.10;3.50;;;;;;;15.91;50.62;100296.73;106853;1269;74167;-40
2023/05/13 05:52:32;;;;;;;7.50;3.20;;;;;;;16.02;49.77;100300.08;106871;1262;66703;-40
2023/05/13 05:54:59;;;;;;;6.40;3.50;;;;;;;16.13;49.36;100301.29;106832;1263;71726;-40
2023/05/13 05:57:27;;;;;;;6.80;3.50;;;;;;;16.24;49.39;100302.20;106849;1263;62398;-40
2023/05/13 05:59:54;;;;;;;5.40;3.30;;;;;;;16.34;49.39;100299.72;106983;1261;61718;-41
2023/05/13 06:02:21;;;;;;;5.40;3.20;;;;;;;16.46;47.96;100300.24;106863;1266;76218;-40
2023/05/13 06:04:50;;;;;;;5.30;3.10;;;;;;;16.60;47.96;100298.75;106878;1263;68397;-40
2023/05/13 06:07:18;;;;;;;5.40;3.40;;;;;;;16.72;47.26;100302.08;106789;1266;74520;-40
2023/05/13 06:09:46;;;;;;;6.40;3.80;;;;;;;16.83;47.50;100306.33;106785;1262;60499;-40
2023/05/13 06:12:13;;;;;;;6.30;3.60;;;;;;;16.94;47.99;100302.35;106780;1261;61330;-41
2023/05/13 06:14:40;;;;;;;6.90;3.20;;;;;;;17.04;47.61;100301.57;106787;1263;75660;-40
2023/05/13 06:17:08;;;;;;;5.50;3.00;;;;;;;17.14;45.89;100300.08;106823;1263;67480;-40
2023/05/13 06:19:35;;;;;;;4.30;2.80;;;;;;;17.24;45.28;100301.09;107009;1264;74989;-40
2023/05/13 06:22:03;;;;;;;4.30;2.50;;;;;;;17.36;44.50;100305.95;106894;1264;61499;-41
2023/05/13 06:24:30;;;;;;;3.90;2.60;;;;;;;17.48;44.31;100305.63;106910;1262;60485;-40
2023/05/13 06:26:57;;;;;;;4.10;2.70;;;;;;;17.60;44.67;100303.20;106855;1263;75670;-41
2023/05/13 06:29:24;;;;;;;5.20;2.90;;;;;;;17.72;43.77;100304.14;106844;1263;70261;-40
2023/05/13 06:31:52;;;;;;;5.00;2.70;;;;;;;17.83;43.19;100300.20;106891;1266;72660;-40
2023/05/13 06:34:19;;;;;;;4.70;2.90;;;;;;;17.94;42.83;100300.02;106921;1266;60623;-40
2023/05/13 06:36:47;;;;;;;4.40;2.70;;;;;;;18.04;42.61;100298.65;106880;1266;60238;-40
2023/05/13 06:39:14;;;;;;;3.40;2.80;;;;;;;18.17;40.93;100300.32;106837;1268;74964;-40
2023/05/13 06:41:42;;;;;;;3.80;2.60;;;;;;;18.28;40.61;100300.52;106869;1260;68682;-41
2023/05/13 06:44:12;;;;;;;4.70;2.40;;;;;;;18.40;39.42;100303.44;106875;1266;72250;-40
2023/05/13 06:46:44;;;;;;;4.30;2.80;;;;;;;18.50;39.54;100300.34;106844;1263;60437;-40
2023/05/13 06:49:11;;;;;;;4.80;2.80;;;;;;;18.58;40.09;100294.33;107124;1263;60332;-40
2023/05/13 06:51:38;;;;;;;4.20;2.70;;;;;;;18.68;40.61;100294.98;106852;1266;75629;-40
2023/05/13 06:54:06;;;;;;;5.80;3.10;;;;;;;18.81;40.45;100294.73;106931;1263;70260;-40
2023/05/13 06:56:33;;;;;;;4.70;2.60;;;;;;;18.95;39.99;100294.90;106866;1263;74551;-40
2023/05/13 06:59:00;;;;;;;7.20;2.90;;;;;;;19.08;40.13;100293.48;107004;1262;61224;-39
2023/05/13 07:01:28;;;;;;;6.90;2.60;;;;;;;19.20;39.38;100293.31;106909;1266;61945;-40
2023/05/13 07:03:55;;;;;;;5.50;2.40;;;;;;;19.29;38.82;100292.91;106756;1263;75827;-39
2023/05/13 07:06:22;;;;;;;8.10;3.10;;;;;;;19.38;39.13;100295.64;106772;1264;70348;-39
2023/05/13 07:08:49;;;;;;;4.30;2.70;;;;;;;19.50;39.08;100298.16;106837;1263;74056;-39
2023/05/13 07:11:17;;;;;;;6.70;2.50;;;;;;;19.62;37.75;100298.05;106728;1266;60524;-39
2023/05/13 07:13:44;;;;;;;4.80;2.50;;;;;;;19.72;37.55;100296.21;106808;1263;62657;-39
2023/05/13 07:16:13;;;;;;;5.00;2.40;;;;;;;19.81;38.13;100298.23;107079;1257;76166;-39
2023/05/13 07:18:40;;;;;;;3.60;2.10;;;;;;;19.90;35.86;100295.58;107152;1258;70115;-39
2023/05/13 07:21:07;;;;;;;3.30;1.80;;;;;;;19.97;34.75;100293.91;107027;1262;75048;-39
2023/05/13 07:23:35;;;;;;;5.70;2.10;;;;;;;20.04;34.82;100294.52;107043;1262;61133;-39
2023/05/13 07:26:02;;;;;;;6.80;2.10;;;;;;;20.11;34.58;100295.02;107053;1257;60532;-39
2023/05/13 07:28:30;;;;;;;4.50;2.10;;;;;;;20.20;34.53;100294.74;107177;1257;74489;-40
2023/05/13 07:30:57;;;;;;;5.80;2.40;;;;;;;20.30;35.25;100290.61;107045;1257;70330;-40
2023/05/13 07:33:24;;;;;;;4.00;2.00;;;;;;;20.39;34.41;100287.58;107192;1257;74067;-39
2023/05/13 07:35:52;;;;;;;6.90;2.10;;;;;;;20.45;33.04;100286.20;107046;1263;62622;-39
2023/05/13 07:38:19;;;;;;;6.80;2.40;;;;;;;20.51;32.91;100285.45;107035;1257;61672;-39
2023/05/13 07:40:46;;;;;;;3.00;2.00;;;;;;;20.57;31.51;100283.68;107023;1257;76021;-39
2023/05/13 07:43:16;;;;;;;4.20;2.00;;;;;;;20.63;31.20;100287.42;107019;1262;69114;-39
2023/05/13 07:45:43;;;;;;;3.50;2.00;;;;;;;20.69;31.85;100281.55;107093;1263;75040;-40
2023/05/13 07:48:11;;;;;;;9.60;2.60;;;;;;;20.77;31.80;100281.25;107064;1261;62672;-40
2023/05/13 07:50:39;;;;;;;3.80;2.30;;;;;;;20.85;31.57;100272.61;107287;1257;60922;-39
2023/05/13 07:53:06;;;;;;;2.70;2.10;;;;;;;21.00;31.22;100285.38;107028;1264;73711;-39
2023/05/13 07:55:33;;;;;;;4.70;2.10;;;;;;;21.07;31.50;100285.80;106999;1257;69132;-40
2023/05/13 07:58:00;;;;;;;6.00;2.20;;;;;;;21.16;31.99;100282.73;107037;1257;74975;-39
2023/05/13 08:00:27;;;;;;;4.60;2.20;;;;;;;21.29;29.85;100277.52;106977;1262;60478;-39
2023/05/13 08:02:55;;;;;;;4.10;2.30;;;;;;;21.38;30.69;100282.61;107165;1257;62615;-39
2023/05/13 08:05:22;;;;;;;3.30;2.20;;;;;;;21.45;30.64;100282.77;107036;1257;75977;-39
2023/05/13 08:07:50;;;;;;;2.70;2.40;;;;;;;21.50;30.67;100278.46;107058;1257;70337;-40
2023/05/13 08:10:17;;;;;;;3.90;2.20;;;;;;;21.57;31.03;100279.48;107152;1257;72058;-39
2023/05/13 08:12:49;;;;;;;5.50;2.50;;;;;;;21.67;31.00;100280.09;107062;1260;62463;-39
2023/05/13 08:15:18;;;;;;;5.20;2.40;;;;;;;21.78;30.41;100275.85;107169;1257;62629;-39
2023/05/13 08:17:45;;;;;;;3.30;2.00;;;;;;;21.86;29.23;100272.98;107294;1257;74358;-39
2023/05/13 08:20:14;;;;;;;2.80;1.90;;;;;;;21.91;29.22;100275.54;106991;1257;69972;-39
2023/05/13 08:22:42;;;;;;;4.70;2.10;;;;;;;21.96;29.96;100272.48;107110;1257;74922;-39
2023/05/13 08:25:14;;;;;;;3.10;2.00;;;;;;;22.07;29.39;100266.84;107199;1257;60444;-39
2023/05/13 08:27:41;;;;;;;4.70;1.90;;;;;;;22.17;28.45;100267.02;107227;1257;62452;-39
2023/05/13 08:30:09;;;;;;;3.40;2.10;;;;;;;22.25;28.38;100268.02;107229;1257;76184;-39
2023/05/13 08:32:36;;;;;;;4.70;1.90;;;;;;;22.30;28.16;100259.02;107210;1257;70262;-39
2023/05/13 08:35:04;;;;;;;2.40;2.00;;;;;;;22.31;28.37;100263.65;107207;1257;75053;-40
2023/05/13 08:37:31;;;;;;;3.20;2.20;;;;;;;22.37;28.84;100265.06;107264;1260;61922;-40
2023/05/13 08:40:00;;;;;;;3.90;2.20;;;;;;;22.47;29.61;100259.88;107228;1263;62242;-39
2023/05/13 08:42:28;;;;;;;3.10;2.30;;;;;;;22.55;29.08;100261.46;107250;1257;76126;-39
2023/05/13 08:44:55;;;;;;;2.10;1.90;;;;;;;22.64;29.05;100261.35;107161;1257;70213;-40
2023/05/13 08:47:39;;;;;;;8.30;2.10;;;;;;;22.77;29.11;100257.52;106974;1257;75018;-40
2023/05/13 08:50:07;;;;;;;4.60;1.80;;;;;;;22.98;28.06;100252.89;107252;1257;62673;-40
2023/05/13 08:52:34;;;;;;;4.50;1.70;;;;;;;23.12;27.36;100251.23;107109;1257;60508;-39
2023/05/13 08:55:01;;;;;;;4.50;2.00;;;;;;;23.17;26.93;100251.77;107190;1263;75946;-39
2023/05/13 08:57:29;;;;;;;3.40;2.10;;;;;;;23.19;26.92;100245.40;107022;1258;70257;-40
2023/05/13 08:59:57;;;;;;;1.90;1.60;;;;;;;23.25;26.97;100244.98;107244;1257;72643;-38
2023/05/13 09:02:24;;;;;;;3.20;1.90;;;;;;;23.34;26.44;100242.13;107186;1258;60418;-40
2023/05/13 09:04:52;;;;;;;3.10;2.10;;;;;;;23.35;26.26;100242.33;107208;1257;61856;-39
2023/05/13 09:07:19;;;;;;;2.30;1.50;;;;;;;23.37;26.63;100236.67;107199;1257;75951;-40
2023/05/13 09:09:46;;;;;;;2.80;1.60;;;;;;;23.43;25.86;100234.05;107256;1263;70279;-39
2023/05/13 09:12:40;;;;;;;3.20;1.90;;;;;;;23.47;25.74;100228.86;107017;1262;74876;-39
2023/05/13 09:15:09;;;;;;;2.30;1.50;;;;;;;23.47;25.87;100230.13;107205;1258;61098;-40
2023/05/13 09:17:38;;;;;;;3.90;1.60;;;;;;;23.48;25.24;100227.33;107288;1257;61051;-40
2023/05/13 09:20:07;;;;;;;2.70;1.50;;;;;;;23.56;26.02;100216.73;107312;1258;72854;-40
2023/05/13 09:22:34;;;;;;;3.10;1.70;;;;;;;23.69;26.60;100220.24;107271;1262;70244;-39
2023/05/13 09:25:03;;;;;;;2.40;1.40;;;;;;;23.79;25.59;100217.58;107209;1263;74645;-39
2023/05/13 09:27:37;;;;;;;1.90;1.50;;;;;;;23.79;24.33;100216.23;107238;1262;60297;-39
2023/05/13 09:30:06;;;;;;;3.00;1.60;;;;;;;23.77;24.53;100213.11;107235;1262;62499;-39
2023/05/13 09:32:33;;;;;;;2.90;1.50;;;;;;;23.78;24.93;100211.03;107247;1262;74797;-39
2023/05/13 09:35:17;;;;;;;5.30;1.60;;;;;;;23.83;25.44;100205.79;107205;1257;68196;-39
2023/05/13 09:37:46;;;;;;;3.40;1.60;;;;;;;23.93;25.08;100200.42;107250;1261;74965;-39
2023/05/13 09:40:14;;;;;;;4.00;1.50;;;;;;;24.00;25.21;100196.56;107259;1262;60453;-39
2023/05/13 09:42:43;;;;;;;3.10;1.50;;;;;;;24.03;24.32;100193.65;107227;1262;60302;-39
2023/05/13 09:45:11;;;;;;;4.00;1.70;;;;;;;24.09;24.22;100187.64;107188;1262;74984;-39
2023/05/13 09:47:39;;;;;;;4.00;2.00;;;;;;;24.18;24.48;100190.95;107271;1262;70285;-39
2023/05/13 09:50:07;;;;;;;1.90;1.70;;;;;;;24.19;24.35;100196.55;107046;1261;72669;-40
2023/05/13 09:52:35;;;;;;;2.90;1.70;;;;;;;24.21;24.04;100188.66;106915;1263;60947;-39
2023/05/13 09:55:04;;;;;;;2.90;1.60;;;;;;;24.31;24.95;100181.46;107088;1263;61527;-39
2023/05/13 09:57:31;;;;;;;2.50;1.30;;;;;;;24.46;24.28;100177.44;107134;1263;76293;-39
2023/05/13 09:59:59;;;;;;;3.10;1.40;;;;;;;24.58;23.20;100174.75;107037;1260;69849;-39
2023/05/13 10:02:26;;;;;;;2.60;1.60;;;;;;;24.71;23.27;100176.16;107035;1262;73968;-39
2023/05/13 10:04:57;;;;;;;2.70;1.30;;;;;;;24.88;23.13;100173.69;107067;1260;61159;-39
2023/05/13 10:07:24;;;;;;;5.60;2.30;;;;;;;25.03;23.00;100172.51;107027;1263;61379;-39
2023/05/13 10:09:53;;;;;;;2.00;1.70;;;;;;;25.07;23.10;100166.50;106966;1258;76748;-39
2023/05/13 10:12:21;;;;;;;3.30;1.80;;;;;;;25.09;23.28;100161.95;106995;1266;70569;-39
2023/05/13 10:14:49;;;;;;;3.00;1.70;;;;;;;25.17;23.70;100164.98;107093;1257;74708;-39
2023/05/13 10:17:18;;;;;;;4.50;1.80;;;;;;;25.35;23.55;100168.91;107094;1263;62367;-39
2023/05/13 10:19:47;;;;;;;4.00;1.80;;;;;;;25.50;22.79;100155.25;107107;1263;62446;-39
2023/05/13 10:22:18;;;;;;;2.20;1.60;;;;;;;25.66;22.68;100160.11;107109;1258;75927;-40
2023/05/13 10:24:45;;;;;;;3.80;1.60;;;;;;;25.70;22.50;100161.88;107064;1263;70274;-39
2023/05/13 10:27:13;;;;;;;3.30;1.70;;;;;;;25.81;22.90;100157.56;106899;1263;73775;-39
2023/05/13 10:29:40;;;;;;;2.40;1.70;;;;;;;26.07;23.60;100154.61;107035;1263;61497;-39
2023/05/13 10:32:07;;;;;;;3.50;1.60;;;;;;;26.26;22.71;100141.08;106918;1257;61122;-39
2023/05/13 10:34:34;;;;;;;3.80;1.70;;;;;;;26.51;22.35;100148.59;107072;1258;76148;-39
2023/05/13 10:37:27;;;;;;;4.90;1.80;;;;;;;26.67;21.13;100146.85;107059;1263;69561;-39
2023/05/13 10:40:14;;;;;;;2.50;1.40;;;;;;;26.65;21.07;100148.50;107175;1263;74121;-39
2023/05/13 10:42:42;;;;;;;5.60;1.80;;;;;;;26.75;21.66;100146.16;107007;1260;61171;-39
2023/05/13 10:45:09;;;;;;;3.30;1.70;;;;;;;26.98;22.35;100137.98;107190;1261;62621;-39
2023/05/13 10:47:37;;;;;;;3.20;1.70;;;;;;;27.22;22.03;100141.50;106928;1260;75475;-39
2023/05/13 10:50:06;;;;;;;2.60;1.70;;;;;;;27.48;20.49;100136.85;106927;1260;69853;-39
2023/05/13 10:52:46;;;;;;;2.10;1.50;;;;;;;27.65;19.97;100137.91;107147;1261;73307;-40
2023/05/13 10:55:15;;;;;;;3.10;1.60;;;;;;;27.75;19.69;100140.20;106957;1266;62798;-39
2023/05/13 10:58:09;;;;;;;3.10;1.40;;;;;;;27.81;19.77;100139.20;107092;1263;62668;-39
2023/05/13 11:00:41;;;;;;;3.40;1.60;;;;;;;27.82;20.00;100135.41;107137;1260;76172;-39
2023/05/13 11:03:11;;;;;;;1.70;1.50;;;;;;;27.92;19.44;100136.98;106928;1260;70250;-39
2023/05/13 11:05:43;;;;;;;4.50;1.80;;;;;;;28.11;19.31;100132.02;106897;1263;74953;-39
2023/05/13 11:08:10;;;;;;;3.00;2.00;;;;;;;28.29;19.01;100135.09;107050;1258;62757;-39
2023/05/13 11:10:37;;;;;;;4.30;1.60;;;;;;;28.58;19.87;100133.97;106922;1263;61248;-39
2023/05/13 11:13:20;;;;;;;6.20;1.70;;;;;;;28.70;19.31;100133.30;106843;1261;76204;-39
2023/05/13 11:15:48;;;;;;;4.80;2.20;;;;;;;28.48;19.15;100131.20;107178;1260;69984;-39
2023/05/13 11:18:15;;;;;;;2.00;1.80;;;;;;;28.30;19.70;100128.14;107227;1262;74312;-39
2023/05/13 11:20:52;;;;;;;2.70;1.80;;;;;;;28.39;20.03;100127.52;106971;1264;62201;-39
2023/05/13 11:23:19;;;;;;;2.60;1.70;;;;;;;28.65;19.50;100128.80;107086;1260;61736;-39
2023/05/13 11:26:15;;;;;;;2.50;1.50;;;;;;;28.70;19.33;100125.02;107092;1261;75487;-39